Time;durP1;ratioP1;P1;durP2;ratioP2;P2;SDS_P1;SDS_P2;PMS_P1;PMS_P2;Temp;Humidity;BMP_temperature;BMP_pressure;BME280_temperature;BME280_humidity;BME280_pressure;Samples;Min_cycle;Max_cycle;Signal;HPM_P1;HPM_P2
2021/07/12 00:00:19;;;;;;;3.90;3.10;;;;;;;24.92;50.77;99690.38;4938438;29;20074;-88
2021/07/12 00:02:47;;;;;;;6.53;3.05;;;;;;;24.79;51.31;99701.69;4938420;29;20056;-88
2021/07/12 00:05:15;;;;;;;3.92;3.00;;;;;;;24.52;52.16;99703.94;4938121;29;20094;-88
2021/07/12 00:07:42;;;;;;;3.75;3.15;;;;;;;24.38;52.63;99699.38;4935967;29;20090;-88
2021/07/12 00:10:11;;;;;;;5.40;3.22;;;;;;;24.42;52.80;99706.03;4938255;29;20099;-88
2021/07/12 00:12:40;;;;;;;4.30;3.00;;;;;;;24.36;52.89;99708.56;4936971;29;20050;-88
2021/07/12 00:15:09;;;;;;;5.93;3.20;;;;;;;24.35;52.72;99709.56;4919868;29;20126;-88
2021/07/12 00:17:37;;;;;;;3.00;2.55;;;;;;;24.33;52.80;99709.72;4936977;29;20048;-87
2021/07/12 00:20:06;;;;;;;3.40;3.03;;;;;;;24.11;53.01;99702.56;4937833;29;20043;-89
2021/07/12 00:22:33;;;;;;;3.25;2.95;;;;;;;24.21;52.85;99709.31;4937489;29;20114;-88
2021/07/12 00:25:02;;;;;;;3.75;3.30;;;;;;;24.28;52.75;99706.75;4937977;29;20126;-89
2021/07/12 00:27:31;;;;;;;5.20;2.50;;;;;;;24.33;51.76;99708.88;4937253;29;20044;-89
2021/07/12 00:30:00;;;;;;;6.93;3.17;;;;;;;24.46;51.20;99704.66;4937592;29;20494;-88
2021/07/12 00:32:27;;;;;;;7.28;3.10;;;;;;;24.60;50.27;99696.88;4937837;29;20086;-89
2021/07/12 00:34:54;;;;;;;3.53;3.00;;;;;;;24.66;50.16;99696.13;4937204;29;20090;-91
2021/07/12 00:37:21;;;;;;;5.50;2.83;;;;;;;24.66;49.58;99696.13;4938548;29;20443;-90
2021/07/12 00:39:48;;;;;;;5.68;2.58;;;;;;;24.61;49.79;99704.69;4937784;29;20100;-88
2021/07/12 00:42:19;;;;;;;3.50;3.10;;;;;;;24.60;49.80;99702.19;4938917;29;20063;-90
2021/07/12 00:44:46;;;;;;;4.13;2.42;;;;;;;24.58;50.14;99699.72;4938620;29;20051;-91
2021/07/12 00:47:13;;;;;;;2.80;2.60;;;;;;;24.51;50.21;99701.47;4920911;29;20035;-89
2021/07/12 00:49:40;;;;;;;8.07;2.63;;;;;;;24.30;51.15;99707.44;4929568;29;20448;-89
2021/07/12 00:52:07;;;;;;;4.28;2.45;;;;;;;24.14;51.53;99699.56;4936176;29;20467;-87
2021/07/12 00:54:36;;;;;;;3.05;2.55;;;;;;;24.20;51.07;99693.50;4936335;29;20047;-86
2021/07/12 00:57:06;;;;;;;2.70;2.50;;;;;;;24.34;50.79;99697.22;4935502;29;20192;-85
2021/07/12 00:59:35;;;;;;;3.15;2.85;;;;;;;24.38;50.61;99694.06;4935405;29;20059;-85
2021/07/12 01:02:04;;;;;;;6.38;2.80;;;;;;;24.43;50.32;99694.34;4919692;29;20058;-85
2021/07/12 01:04:34;;;;;;;4.28;3.30;;;;;;;24.36;50.37;99701.41;4937035;29;20511;-85
2021/07/12 01:07:01;;;;;;;4.10;3.10;;;;;;;24.43;50.60;99699.69;4935724;29;20035;-88
2021/07/12 01:09:29;;;;;;;2.92;2.72;;;;;;;24.62;49.93;99701.03;4921061;29;20051;-88
2021/07/12 01:12:10;;;;;;;11.68;4.10;;;;;;;24.51;50.14;99699.63;4937113;29;20086;-90
2021/07/12 01:14:56;;;;;;;3.22;2.92;;;;;;;24.63;49.91;99696.53;4936994;29;20513;-89
2021/07/12 01:17:56;;;;;;;4.13;3.08;;;;;;;24.44;50.91;99696.00;4919528;29;20518;-89
2021/07/12 01:21:03;;;;;;;4.55;3.40;;;;;;;24.54;50.54;99707.25;4937686;29;20043;-89
2021/07/12 01:23:33;;;;;;;3.50;3.20;;;;;;;24.67;50.39;99708.47;4918216;29;20139;-89
2021/07/12 01:26:38;;;;;;;6.13;3.45;;;;;;;24.42;50.62;99699.88;4931125;29;20055;-89
2021/07/12 01:29:16;;;;;;;6.13;3.25;;;;;;;24.15;51.96;99701.22;4935664;29;20054;-89
2021/07/12 01:32:17;;;;;;;4.60;2.97;;;;;;;24.18;51.67;99701.69;4935162;29;20052;-90
2021/07/12 01:34:58;;;;;;;7.15;4.18;;;;;;;24.39;51.08;99713.53;4936267;29;20047;-88
2021/07/12 01:37:25;;;;;;;2.95;2.75;;;;;;;24.39;50.82;99713.53;4919308;29;20086;-88
2021/07/12 01:40:09;;;;;;;7.32;4.15;;;;;;;24.42;51.12;99715.84;4936702;29;20040;-87
2021/07/12 01:43:10;;;;;;;3.92;3.13;;;;;;;24.35;50.99;99715.75;4935902;29;20542;-87
2021/07/12 01:46:04;;;;;;;3.05;2.80;;;;;;;24.42;51.44;99729.16;4884474;29;20090;-89
2021/07/12 01:48:57;;;;;;;4.00;2.80;;;;;;;24.41;51.85;99730.19;4935777;29;20063;-86
2021/07/12 01:51:52;;;;;;;3.63;3.33;;;;;;;24.36;51.56;99721.91;4935155;29;20040;-84
2021/07/12 01:54:29;;;;;;;4.88;3.05;;;;;;;24.28;51.58;99725.41;4934760;29;20139;-86
2021/07/12 01:57:17;;;;;;;4.50;4.10;;;;;;;24.18;52.16;99719.47;4919215;29;20044;-87
2021/07/12 02:00:01;;;;;;;5.53;3.25;;;;;;;24.37;51.49;99727.03;4936103;29;20407;-88
2021/07/12 02:02:53;;;;;;;8.15;2.95;;;;;;;24.32;51.51;99724.03;4936065;29;20039;-86
2021/07/12 02:05:34;;;;;;;3.40;3.10;;;;;;;24.13;52.43;99725.34;4918368;29;20058;-87
2021/07/12 02:08:09;;;;;;;3.67;3.38;;;;;;;24.05;52.59;99730.72;4959291;23;20442;-77
2021/07/12 02:10:40;;;;;;;4.03;3.63;;;;;;;23.87;53.14;99727.53;4973156;28;20066;-77
2021/07/12 02:13:13;;;;;;;5.75;3.38;;;;;;;24.04;52.65;99735.22;4951166;28;20461;-77
2021/07/12 02:15:53;;;;;;;3.63;3.33;;;;;;;24.04;52.72;99731.72;4953847;29;20058;-77
2021/07/12 02:18:34;;;;;;;3.45;3.15;;;;;;;24.07;52.63;99728.69;4948170;28;20049;-76
2021/07/12 02:21:14;;;;;;;9.10;5.25;;;;;;;23.93;53.13;99727.63;4917688;29;20099;-76
2021/07/12 02:23:47;;;;;;;;;;;;;;;23.92;53.36;99731.31;4922546;29;20047;-78
2021/07/12 02:26:15;;;;;;;3.60;3.03;;;;;;;23.85;53.05;99727.66;4964470;28;19922;-77
2021/07/12 02:28:44;;;;;;;3.90;3.50;;;;;;;24.00;52.58;99723.25;4972881;28;20556;-76
2021/07/12 02:31:14;;;;;;;6.28;3.22;;;;;;;23.91;53.02;99721.63;4971150;28;20089;-78
2021/07/12 02:33:43;;;;;;;4.30;3.78;;;;;;;23.90;53.33;99735.97;4960592;28;20374;-78
2021/07/12 02:36:12;;;;;;;3.95;3.47;;;;;;;23.88;53.07;99730.00;4955934;28;20047;-79
2021/07/12 02:38:40;;;;;;;4.78;3.05;;;;;;;23.81;53.22;99737.03;4958926;28;20097;-79
2021/07/12 02:41:11;;;;;;;5.00;3.55;;;;;;;23.78;53.46;99735.53;4958242;28;20042;-76
2021/07/12 02:43:39;;;;;;;3.30;2.95;;;;;;;23.87;52.98;99733.66;4966254;28;20038;-76
2021/07/12 02:46:07;;;;;;;3.40;3.03;;;;;;;23.97;52.19;99736.09;4977273;28;20051;-76
2021/07/12 02:48:34;;;;;;;3.60;3.22;;;;;;;23.99;51.94;99742.91;4965464;28;20452;-79
2021/07/12 02:51:08;;;;;;;3.50;3.17;;;;;;;24.09;51.76;99749.84;4956913;28;20054;-78
2021/07/12 02:53:40;;;;;;;4.07;3.55;;;;;;;24.02;51.61;99742.56;4959164;28;20173;-78
2021/07/12 02:56:07;;;;;;;4.35;3.60;;;;;;;24.11;51.42;99745.16;4960773;28;20534;-78
2021/07/12 02:58:37;;;;;;;4.13;3.10;;;;;;;24.11;51.20;99745.16;4940367;29;20045;-78
2021/07/12 03:01:06;;;;;;;3.95;3.35;;;;;;;24.22;51.41;99739.44;4958749;28;20078;-78
2021/07/12 03:03:36;;;;;;;4.10;3.78;;;;;;;24.08;51.03;99745.53;4976546;28;20126;-78
2021/07/12 03:06:11;;;;;;;4.97;3.58;;;;;;;24.17;51.21;99745.28;4958673;28;20047;-77
2021/07/12 03:09:00;;;;;;;4.03;3.33;;;;;;;24.22;50.70;99750.06;4936771;29;20055;-78
2021/07/12 03:11:56;;;;;;;7.00;3.30;;;;;;;23.52;53.35;99742.94;4928455;29;20103;-77
2021/07/12 03:14:32;;;;;;;5.05;4.20;;;;;;;24.00;53.03;99755.22;4932314;29;20506;-76
2021/07/12 03:17:00;;;;;;;4.72;4.32;;;;;;;23.79;53.77;99757.66;4936279;29;20502;-75
2021/07/12 03:19:33;;;;;;;5.40;4.90;;;;;;;23.53;54.84;99756.06;4928683;29;20047;-75
2021/07/12 03:22:04;;;;;;;5.47;3.90;;;;;;;23.31;55.58;99770.09;4936435;29;20047;-76
2021/07/12 03:24:36;;;;;;;;;;;;;;;23.56;55.37;99767.38;4927409;29;20054;-78
2021/07/12 03:27:08;;;;;;;4.88;4.47;;;;;;;23.50;54.94;99759.06;4930000;29;19922;-77
2021/07/12 03:29:37;;;;;;;8.15;5.40;;;;;;;22.71;57.52;99766.00;4936505;29;20044;-77
2021/07/12 03:32:06;;;;;;;5.88;5.38;;;;;;;22.65;57.83;99776.47;4927845;29;20123;-78
2021/07/12 03:34:34;;;;;;;5.28;4.78;;;;;;;23.07;56.82;99786.13;4918740;29;20063;-76
2021/07/12 03:37:02;;;;;;;7.18;5.75;;;;;;;22.96;57.09;99800.56;4933637;29;20509;-77
2021/07/12 03:39:30;;;;;;;7.55;6.05;;;;;;;22.74;57.63;99805.53;4937088;29;20107;-76
2021/07/12 03:41:58;;;;;;;6.38;5.78;;;;;;;22.69;57.99;99807.00;4917297;29;20056;-78
2021/07/12 03:44:26;;;;;;;7.28;5.28;;;;;;;22.68;58.28;99810.66;4943713;29;20047;-77
2021/07/12 03:46:53;;;;;;;4.57;4.18;;;;;;;22.54;58.50;99817.47;4936946;29;20051;-77
2021/07/12 03:49:23;;;;;;;6.75;5.25;;;;;;;22.64;58.12;99804.03;4916732;29;20047;-78
2021/07/12 03:51:53;;;;;;;7.00;5.38;;;;;;;22.55;58.57;99799.69;4917259;29;20103;-79
2021/07/12 03:54:20;;;;;;;5.63;4.82;;;;;;;22.04;60.13;99786.44;4918029;29;20048;-76
2021/07/12 03:56:47;;;;;;;5.75;5.15;;;;;;;22.38;59.31;99783.75;4935689;29;20046;-76
2021/07/12 03:59:14;;;;;;;5.43;4.68;;;;;;;22.41;59.13;99788.72;4936742;29;20055;-76
2021/07/12 04:01:42;;;;;;;4.97;4.47;;;;;;;22.31;59.91;99792.50;4928312;29;20107;-77
2021/07/12 04:04:09;;;;;;;7.65;6.50;;;;;;;22.51;59.27;99788.56;4937028;29;20118;-76
2021/07/12 04:06:37;;;;;;;9.80;8.98;;;;;;;22.81;57.96;99789.75;4938436;29;20059;-75
2021/07/12 04:09:04;;;;;;;10.55;9.43;;;;;;;23.02;57.53;99785.78;4949548;28;20044;-77
2021/07/12 04:11:34;;;;;;;13.77;11.20;;;;;;;22.96;57.60;99790.78;4917613;29;20119;-76
2021/07/12 04:14:02;;;;;;;12.13;11.10;;;;;;;22.74;58.25;99804.69;4917824;29;20126;-75
2021/07/12 04:16:29;;;;;;;12.32;11.07;;;;;;;23.07;57.23;99812.69;4932418;29;20047;-77
2021/07/12 04:18:56;;;;;;;10.60;9.45;;;;;;;23.09;57.29;99814.19;4936518;29;20042;-78
2021/07/12 04:21:23;;;;;;;9.38;8.32;;;;;;;23.28;56.96;99815.66;4936444;29;20451;-76
2021/07/12 04:23:51;;;;;;;10.93;8.90;;;;;;;23.34;56.89;99812.31;4936676;29;20047;-77
2021/07/12 04:26:18;;;;;;;6.78;5.93;;;;;;;23.12;57.77;99797.91;4936142;29;20051;-80
2021/07/12 04:28:45;;;;;;;5.70;5.10;;;;;;;23.39;56.64;99788.72;4933516;29;20039;-78
2021/07/12 04:31:13;;;;;;;6.43;4.20;;;;;;;23.50;55.86;99785.69;4925989;29;20079;-80
2021/07/12 04:33:40;;;;;;;4.85;4.40;;;;;;;23.58;55.42;99794.63;4932138;29;20094;-78
2021/07/12 04:36:07;;;;;;;5.18;4.70;;;;;;;23.38;55.77;99802.97;4927960;29;20123;-78
2021/07/12 04:38:35;;;;;;;9.52;5.03;;;;;;;23.55;55.43;99798.47;4932760;29;20099;-78
2021/07/12 04:41:02;;;;;;;6.45;4.82;;;;;;;23.73;55.08;99804.41;4945760;29;20501;-79
2021/07/12 04:43:30;;;;;;;11.80;6.05;;;;;;;23.72;55.16;99801.94;4948074;28;20052;-78
2021/07/12 04:45:56;;;;;;;5.72;5.13;;;;;;;23.87;54.31;99796.72;4945096;29;20055;-78
2021/07/12 04:48:24;;;;;;;12.45;4.65;;;;;;;24.07;54.10;99770.47;4948103;28;20118;-78
2021/07/12 04:50:51;;;;;;;7.93;4.88;;;;;;;24.09;54.34;99769.31;4946451;29;20152;-78
2021/07/12 04:53:18;;;;;;;5.00;4.07;;;;;;;24.18;54.40;99762.09;4944027;28;20051;-78
2021/07/12 04:55:45;;;;;;;5.28;4.50;;;;;;;23.92;55.48;99741.13;4941073;28;20075;-77
2021/07/12 04:58:11;;;;;;;8.48;7.65;;;;;;;24.15;55.17;99735.81;4943274;29;20051;-78
2021/07/12 05:00:38;;;;;;;10.57;8.55;;;;;;;24.17;54.65;99737.28;4947121;28;20406;-80
2021/07/12 05:03:06;;;;;;;13.43;7.85;;;;;;;24.51;53.11;99750.25;4926661;29;20052;-78
2021/07/12 05:05:33;;;;;;;12.00;8.50;;;;;;;24.74;52.72;99770.72;4933339;29;20059;-80
2021/07/12 05:08:00;;;;;;;9.35;7.07;;;;;;;24.62;53.03;99786.28;4947490;28;20058;-80
2021/07/12 05:10:27;;;;;;;8.65;7.80;;;;;;;24.32;53.15;99801.28;4954157;28;20039;-80
2021/07/12 05:12:54;;;;;;;9.45;7.55;;;;;;;24.65;52.19;99798.44;4952288;28;20039;-80
2021/07/12 05:15:22;;;;;;;16.45;7.93;;;;;;;24.65;52.46;99804.56;4951990;28;20061;-79
2021/07/12 05:17:49;;;;;;;9.98;6.95;;;;;;;24.89;51.54;99806.22;4953752;28;20051;-79
2021/07/12 05:20:16;;;;;;;10.65;6.45;;;;;;;24.78;52.18;99804.00;4956235;28;20125;-79
2021/07/12 05:22:43;;;;;;;9.18;6.75;;;;;;;25.08;51.58;99803.06;4954732;28;20057;-79
2021/07/12 05:25:10;;;;;;;7.75;6.15;;;;;;;24.75;52.83;99807.00;4968594;28;20438;-80
2021/07/12 05:27:37;;;;;;;7.85;5.55;;;;;;;24.56;52.86;99803.84;4972575;28;20109;-80
2021/07/12 05:30:06;;;;;;;9.45;4.30;;;;;;;24.52;51.44;99797.19;4940919;28;20044;-78
2021/07/12 05:32:34;;;;;;;5.93;4.28;;;;;;;24.81;50.98;99800.97;4964791;28;20057;-79
2021/07/12 05:35:01;;;;;;;8.32;4.90;;;;;;;24.69;51.10;99813.06;4967222;28;20130;-79
2021/07/12 05:37:28;;;;;;;6.53;3.83;;;;;;;24.70;50.23;99822.69;4966514;28;20042;-79
2021/07/12 05:39:55;;;;;;;8.20;3.85;;;;;;;24.86;50.25;99830.56;4970343;28;20042;-78
2021/07/12 05:42:23;;;;;;;4.20;3.75;;;;;;;24.83;49.65;99826.44;4968896;28;20051;-79
2021/07/12 05:44:50;;;;;;;9.55;3.78;;;;;;;24.66;50.11;99827.59;4940446;28;20158;-79
2021/07/12 05:47:17;;;;;;;7.93;4.68;;;;;;;24.77;49.96;99821.00;4945076;28;20498;-83
2021/07/12 05:49:44;;;;;;;5.55;3.60;;;;;;;24.94;50.20;99811.84;4948219;28;20102;-82
2021/07/12 05:52:11;;;;;;;8.13;3.92;;;;;;;24.62;51.84;99801.47;4951576;28;20051;-82
2021/07/12 05:54:39;;;;;;;6.78;4.53;;;;;;;24.79;52.39;99813.66;4952271;28;20122;-80
2021/07/12 05:57:06;;;;;;;7.38;3.85;;;;;;;24.76;53.04;99821.97;4952372;28;20058;-82
2021/07/12 05:59:33;;;;;;;7.55;3.88;;;;;;;24.83;53.22;99814.97;4956814;28;20398;-83
2021/07/12 06:01:59;;;;;;;7.63;4.15;;;;;;;25.23;52.56;99799.59;4957483;28;20047;-80
2021/07/12 06:04:26;;;;;;;6.55;4.68;;;;;;;25.19;53.07;99804.47;4958149;28;20036;-79
2021/07/12 06:06:53;;;;;;;6.78;4.35;;;;;;;24.95;53.46;99808.19;4962343;28;20054;-84
2021/07/12 06:09:20;;;;;;;6.60;4.35;;;;;;;24.98;53.85;99805.16;4960696;28;20036;-81
2021/07/12 06:11:47;;;;;;;6.60;4.00;;;;;;;25.06;54.04;99807.78;4966036;28;20051;-83
2021/07/12 06:14:14;;;;;;;9.30;4.68;;;;;;;25.07;54.32;99806.75;4968188;28;20042;-79
2021/07/12 06:16:41;;;;;;;5.35;4.10;;;;;;;25.21;54.18;99796.31;4972294;28;20070;-83
2021/07/12 06:19:13;;;;;;;6.88;4.00;;;;;;;25.26;53.86;99789.41;4973644;28;20097;-80
2021/07/12 06:21:40;;;;;;;9.02;4.40;;;;;;;25.49;53.26;99773.31;4966897;28;20122;-79
2021/07/12 06:24:07;;;;;;;5.35;4.53;;;;;;;25.66;52.72;99754.44;4973626;28;20160;-80
2021/07/12 06:26:34;;;;;;;7.32;4.20;;;;;;;26.05;51.87;99746.94;4971993;28;20409;-81
2021/07/12 06:29:01;;;;;;;9.25;4.13;;;;;;;25.89;52.39;99740.97;4975398;28;20392;-80
2021/07/12 06:31:27;;;;;;;4.93;4.43;;;;;;;26.13;51.43;99729.94;4976619;28;20039;-80
2021/07/12 06:33:57;;;;;;;5.97;4.15;;;;;;;26.44;50.43;99721.66;4953974;28;20039;-79
2021/07/12 06:36:24;;;;;;;12.57;4.65;;;;;;;26.15;50.93;99719.06;4976950;28;20371;-81
2021/07/12 06:38:51;;;;;;;6.35;4.25;;;;;;;26.21;51.03;99716.50;4976899;28;20111;-79
2021/07/12 06:41:18;;;;;;;4.85;4.10;;;;;;;26.52;50.06;99705.47;4977446;28;20049;-81
2021/07/12 06:43:45;;;;;;;4.28;3.78;;;;;;;26.72;49.54;99694.94;4976580;28;20074;-81
2021/07/12 06:46:14;;;;;;;5.35;4.50;;;;;;;26.61;49.63;99690.94;4977146;28;20505;-80
2021/07/12 06:48:43;;;;;;;6.22;4.22;;;;;;;26.66;49.60;99690.38;4958998;28;20043;-80
2021/07/12 06:51:15;;;;;;;8.98;3.75;;;;;;;26.93;48.58;99680.69;4959325;28;20051;-79
2021/07/12 06:53:42;;;;;;;6.00;4.35;;;;;;;26.77;48.21;99670.28;4972226;28;20047;-80
2021/07/12 06:56:09;;;;;;;5.25;3.75;;;;;;;27.15;47.89;99652.03;4974992;28;20090;-82
2021/07/12 06:58:36;;;;;;;6.88;4.15;;;;;;;26.88;48.97;99641.16;4956941;29;20051;-82
2021/07/12 07:01:03;;;;;;;6.38;4.63;;;;;;;27.01;48.88;99629.72;4957208;29;20376;-79
2021/07/12 07:03:31;;;;;;;8.95;5.78;;;;;;;27.09;48.33;99631.44;4958976;28;20091;-77
2021/07/12 07:05:58;;;;;;;8.10;3.83;;;;;;;27.32;47.57;99629.25;4956868;28;20131;-79
2021/07/12 07:08:33;;;;;;;5.47;3.72;;;;;;;27.27;47.62;99622.84;4938889;28;20046;-79
2021/07/12 07:11:00;;;;;;;8.18;4.63;;;;;;;26.73;49.66;99631.59;4958734;28;20063;-79
2021/07/12 07:13:27;;;;;;;6.03;4.07;;;;;;;27.22;48.22;99630.66;4953886;28;20063;-79
2021/07/12 07:15:58;;;;;;;9.55;4.70;;;;;;;27.29;47.75;99652.94;4950667;28;20043;-80
2021/07/12 07:18:25;;;;;;;7.28;5.13;;;;;;;27.05;48.40;99665.72;4941019;28;20482;-77
2021/07/12 07:20:52;;;;;;;8.20;4.95;;;;;;;27.10;48.34;99686.56;4939077;28;20413;-78
2021/07/12 07:23:19;;;;;;;6.28;5.68;;;;;;;26.76;49.15;99687.38;4955992;28;20090;-82
2021/07/12 07:25:47;;;;;;;6.78;5.72;;;;;;;26.95;48.36;99678.63;4958236;28;20043;-81
2021/07/12 07:28:17;;;;;;;13.27;4.43;;;;;;;26.56;49.32;99672.00;4958732;28;20043;-80
2021/07/12 07:30:45;;;;;;;7.55;4.72;;;;;;;26.75;49.35;99669.69;4956122;28;20094;-80
2021/07/12 07:33:12;;;;;;;7.05;4.60;;;;;;;26.80;48.95;99668.06;4957769;28;20047;-83
2021/07/12 07:35:39;;;;;;;7.13;4.68;;;;;;;26.86;49.07;99675.31;4940952;28;20050;-81
2021/07/12 07:38:06;;;;;;;8.32;4.82;;;;;;;27.02;48.32;99694.75;4955986;28;20368;-82
2021/07/12 07:40:34;;;;;;;9.85;4.43;;;;;;;26.77;49.25;99700.53;4954440;28;20091;-81
2021/07/12 07:43:01;;;;;;;6.55;4.50;;;;;;;27.16;48.58;99685.78;4954087;29;20086;-83
2021/07/12 07:45:27;;;;;;;6.38;4.55;;;;;;;26.41;49.26;99687.25;4965073;28;20039;-81
2021/07/12 07:47:54;;;;;;;7.28;4.25;;;;;;;26.91;48.50;99709.47;4957423;28;20138;-79
2021/07/12 07:50:22;;;;;;;9.98;4.55;;;;;;;26.87;47.99;99726.94;4956633;28;20039;-81
2021/07/12 07:52:50;;;;;;;7.65;5.10;;;;;;;26.81;49.07;99735.75;4947069;28;20384;-80
2021/07/12 07:55:18;;;;;;;9.02;3.90;;;;;;;26.69;49.18;99737.28;4952648;28;20529;-78
2021/07/12 07:57:45;;;;;;;14.75;4.38;;;;;;;26.62;49.10;99750.59;4951858;28;20094;-78
2021/07/12 08:00:15;;;;;;;4.90;4.40;;;;;;;26.74;48.85;99762.44;4951656;28;20528;-78
2021/07/12 08:02:42;;;;;;;8.10;3.90;;;;;;;27.42;47.29;99771.56;4951484;28;20046;-78
2021/07/12 08:05:09;;;;;;;8.50;4.38;;;;;;;26.95;49.07;99766.06;4953123;28;20127;-78
2021/07/12 08:07:37;;;;;;;8.70;4.80;;;;;;;27.07;48.84;99745.84;4951947;28;20055;-79
2021/07/12 08:10:06;;;;;;;4.22;3.50;;;;;;;27.06;48.36;99736.09;4953441;28;20051;-78
2021/07/12 08:12:33;;;;;;;5.70;4.43;;;;;;;26.84;49.21;99746.03;4951130;28;20142;-80
2021/07/12 08:15:00;;;;;;;4.90;4.43;;;;;;;26.81;49.09;99752.59;4947664;28;20059;-80
2021/07/12 08:17:27;;;;;;;5.65;4.65;;;;;;;26.59;48.94;99737.63;4950184;28;20146;-78
2021/07/12 08:19:54;;;;;;;6.65;4.50;;;;;;;27.03;48.06;99723.97;4955343;28;20123;-78
2021/07/12 08:22:41;;;;;;;8.45;4.82;;;;;;;26.94;48.69;99733.16;4949017;28;20087;-77
2021/07/12 08:25:09;;;;;;;5.90;4.15;;;;;;;26.56;49.71;99738.00;4950702;28;20039;-78
2021/07/12 08:27:37;;;;;;;5.13;4.50;;;;;;;26.78;49.26;99736.13;4953547;28;20387;-78
2021/07/12 08:30:06;;;;;;;5.90;4.53;;;;;;;26.74;49.10;99750.88;4954567;28;20133;-78
2021/07/12 08:32:33;;;;;;;6.53;4.93;;;;;;;26.94;49.08;99751.88;4935947;29;20125;-79
2021/07/12 08:35:00;;;;;;;7.55;5.10;;;;;;;26.78;49.54;99734.25;4944933;28;20043;-78
2021/07/12 08:37:27;;;;;;;8.32;4.63;;;;;;;26.85;49.14;99737.00;4951304;28;20039;-78
2021/07/12 08:39:54;;;;;;;7.38;4.53;;;;;;;26.77;49.28;99729.13;4951936;28;20054;-78
2021/07/12 08:42:21;;;;;;;9.55;5.10;;;;;;;26.77;49.31;99723.78;4950713;28;20494;-78
2021/07/12 08:44:48;;;;;;;5.65;5.03;;;;;;;26.73;50.03;99722.50;4931944;28;20066;-78
2021/07/12 08:47:14;;;;;;;12.65;6.68;;;;;;;26.71;49.43;99722.69;4948962;28;20053;-79
2021/07/12 08:49:41;;;;;;;6.72;4.47;;;;;;;26.78;49.78;99710.19;4950032;28;20057;-78
2021/07/12 08:52:08;;;;;;;7.18;5.05;;;;;;;26.81;49.44;99699.13;4952942;28;20042;-78
2021/07/12 08:54:41;;;;;;;5.93;5.32;;;;;;;26.88;49.37;99705.34;4952214;28;20105;-78
2021/07/12 08:57:08;;;;;;;7.20;4.15;;;;;;;27.27;48.11;99713.81;4951670;28;20126;-80
2021/07/12 08:59:41;;;;;;;9.52;6.00;;;;;;;26.43;49.78;99721.84;4951254;28;20094;-80
2021/07/12 09:02:17;;;;;;;8.52;5.13;;;;;;;26.63;49.40;99712.13;4951962;28;20130;-78
2021/07/12 09:04:53;;;;;;;11.23;5.57;;;;;;;26.81;47.91;99711.69;4953257;28;20509;-78
2021/07/12 09:07:25;;;;;;;13.18;4.80;;;;;;;27.27;47.34;99709.31;4951286;28;20075;-76
2021/07/12 09:09:56;;;;;;;7.13;5.25;;;;;;;27.15;48.42;99708.22;4950029;28;20126;-76
2021/07/12 09:12:36;;;;;;;9.52;4.82;;;;;;;27.28;47.74;99719.00;4949239;28;20039;-76
2021/07/12 09:15:07;;;;;;;8.70;5.00;;;;;;;27.41;47.15;99710.19;4947619;28;20130;-77
2021/07/12 09:17:37;;;;;;;7.72;6.15;;;;;;;27.34;46.61;99704.00;4950906;28;20209;-76
2021/07/12 09:20:09;;;;;;;6.32;4.25;;;;;;;27.50;46.05;99714.38;4948994;28;20044;-75
2021/07/12 09:22:38;;;;;;;4.60;4.20;;;;;;;27.56;45.54;99721.59;4951937;28;20053;-75
2021/07/12 09:25:09;;;;;;;6.45;4.10;;;;;;;27.78;45.22;99716.16;4951144;28;20049;-76
2021/07/12 09:27:38;;;;;;;6.95;4.60;;;;;;;27.87;45.15;99714.94;4952766;28;20049;-76
2021/07/12 09:30:09;;;;;;;9.05;4.10;;;;;;;27.56;45.35;99712.75;4933426;28;20130;-76
2021/07/12 09:32:39;;;;;;;4.65;4.25;;;;;;;27.41;44.67;99724.41;4952249;28;20371;-76
2021/07/12 09:35:16;;;;;;;7.72;4.00;;;;;;;27.61;45.04;99716.47;4950907;28;20154;-76
2021/07/12 09:37:54;;;;;;;7.60;3.85;;;;;;;27.85;44.59;99711.63;4950135;28;20126;-76
2021/07/12 09:40:21;;;;;;;5.72;3.58;;;;;;;28.03;43.92;99698.50;4948403;28;20043;-78
2021/07/12 09:42:50;;;;;;;6.97;4.68;;;;;;;27.74;45.36;99706.84;4947498;28;20059;-76
2021/07/12 09:45:28;;;;;;;8.60;5.70;;;;;;;27.34;46.14;99704.00;4951616;28;20122;-76
2021/07/12 09:48:06;;;;;;;10.70;5.55;;;;;;;27.48;45.80;99710.22;4949320;28;20051;-76
2021/07/12 09:50:33;;;;;;;4.80;4.28;;;;;;;27.46;45.97;99707.75;4947997;28;20383;-78
2021/07/12 09:53:06;;;;;;;4.47;4.07;;;;;;;27.83;45.33;99703.81;4950127;28;20035;-78
2021/07/12 09:55:45;;;;;;;8.63;4.20;;;;;;;28.01;44.78;99707.75;4952989;28;20036;-78
2021/07/12 09:58:17;;;;;;;4.85;4.25;;;;;;;28.14;44.19;99710.47;4952124;28;20074;-76
2021/07/12 10:00:47;;;;;;;6.95;5.35;;;;;;;27.94;44.13;99713.09;4953640;28;20047;-77
2021/07/12 10:03:20;;;;;;;8.48;4.82;;;;;;;27.98;44.42;99719.72;4953888;28;20045;-77
2021/07/12 10:05:48;;;;;;;5.68;4.07;;;;;;;28.15;44.16;99730.88;4954000;28;20083;-76
2021/07/12 10:08:16;;;;;;;6.75;4.30;;;;;;;28.15;44.26;99734.38;4954899;28;20151;-77
2021/07/12 10:10:44;;;;;;;6.15;4.30;;;;;;;28.19;43.56;99734.81;4953656;28;20044;-78
2021/07/12 10:13:11;;;;;;;6.22;4.53;;;;;;;28.30;43.50;99733.38;4953588;28;20035;-79
2021/07/12 10:15:38;;;;;;;5.80;4.10;;;;;;;28.18;44.06;99743.88;4953418;28;20039;-76
2021/07/12 10:18:07;;;;;;;6.10;4.88;;;;;;;28.37;43.37;99743.09;4953536;28;20157;-78
2021/07/12 10:20:36;;;;;;;5.25;4.20;;;;;;;28.27;43.36;99748.00;4951212;28;20054;-78
2021/07/12 10:23:05;;;;;;;8.77;4.28;;;;;;;28.22;43.88;99750.47;4954062;28;20459;-79
2021/07/12 10:25:34;;;;;;;6.63;4.85;;;;;;;28.35;43.19;99739.81;4953846;28;20046;-79
2021/07/12 10:28:06;;;;;;;4.15;3.72;;;;;;;28.47;43.72;99742.72;4954223;28;20061;-79
2021/07/12 10:30:49;;;;;;;8.48;5.03;;;;;;;28.48;43.86;99733.63;4956029;28;20372;-78
2021/07/12 10:33:30;;;;;;;6.75;4.65;;;;;;;28.14;44.11;99727.38;4951737;28;20066;-77
2021/07/12 10:35:58;;;;;;;8.10;4.60;;;;;;;28.30;43.93;99717.31;4934179;28;20098;-79
2021/07/12 10:38:36;;;;;;;7.00;4.55;;;;;;;28.57;43.34;99715.50;4952995;28;20047;-78
2021/07/12 10:41:22;;;;;;;4.95;4.55;;;;;;;28.75;43.38;99709.50;4952994;28;20122;-81
2021/07/12 10:44:00;;;;;;;5.90;5.30;;;;;;;28.66;43.33;99703.53;4955829;28;20055;-76
2021/07/12 10:46:30;;;;;;;9.32;6.13;;;;;;;28.59;43.05;99698.16;4950782;28;20102;-78
2021/07/12 10:48:59;;;;;;;6.10;5.05;;;;;;;28.81;43.06;99688.00;4953153;28;20047;-78
2021/07/12 10:51:30;;;;;;;6.90;5.05;;;;;;;28.59;43.24;99686.59;4952636;28;20488;-79
2021/07/12 10:54:08;;;;;;;6.90;4.53;;;;;;;28.89;42.76;99689.69;4954671;28;20065;-79
2021/07/12 10:57:00;;;;;;;8.13;5.00;;;;;;;28.91;42.53;99684.91;4952703;28;20134;-79
2021/07/12 10:59:27;;;;;;;9.93;4.88;;;;;;;28.95;41.92;99678.13;4956324;28;20047;-78
2021/07/12 11:01:55;;;;;;;6.60;4.05;;;;;;;28.98;42.01;99685.78;4958789;28;20075;-78
2021/07/12 11:04:39;;;;;;;8.43;5.53;;;;;;;28.99;41.90;99673.19;4956916;28;20092;-79
2021/07/12 11:07:13;;;;;;;5.10;4.47;;;;;;;28.96;42.16;99671.72;4956688;28;20061;-77
2021/07/12 11:09:48;;;;;;;6.50;4.90;;;;;;;29.00;41.76;99667.59;4956635;28;20070;-76
2021/07/12 11:12:39;;;;;;;6.38;4.45;;;;;;;28.97;41.58;99658.09;4954495;28;20043;-77
2021/07/12 11:15:06;;;;;;;7.15;4.22;;;;;;;29.28;41.25;99658.41;4955632;28;20044;-77
2021/07/12 11:18:05;;;;;;;7.60;4.25;;;;;;;29.09;41.25;99658.28;4953119;28;20098;-77
2021/07/12 11:20:57;;;;;;;6.70;4.50;;;;;;;29.44;41.17;99649.88;4948726;28;20043;-77
2021/07/12 11:23:36;;;;;;;8.95;5.55;;;;;;;29.06;41.50;99650.66;4947467;28;20051;-76
2021/07/12 11:26:03;;;;;;;6.70;4.47;;;;;;;29.17;41.60;99647.31;4953028;28;20130;-78
2021/07/12 11:28:44;;;;;;;7.47;6.18;;;;;;;28.84;42.46;99651.91;4956608;28;20133;-78
2021/07/12 11:31:52;;;;;;;11.32;6.85;;;;;;;28.97;42.40;99658.09;4954094;28;20058;-77
2021/07/12 11:34:25;;;;;;;7.40;5.00;;;;;;;29.38;41.61;99650.75;4950312;28;20047;-76
2021/07/12 11:37:09;;;;;;;7.93;5.32;;;;;;;29.32;42.07;99648.91;4952956;28;20134;-78
2021/07/12 11:39:49;;;;;;;6.25;5.43;;;;;;;29.33;40.85;99643.31;4956140;28;20135;-80
2021/07/12 11:42:16;;;;;;;10.00;5.55;;;;;;;29.01;42.16;99639.72;4955468;28;20047;-78
2021/07/12 11:45:08;;;;;;;10.10;5.90;;;;;;;28.90;42.03;99637.66;4955950;28;20035;-76
2021/07/12 11:47:39;;;;;;;10.63;6.45;;;;;;;29.30;41.87;99645.63;4960170;28;20039;-79
2021/07/12 11:50:10;;;;;;;5.68;4.50;;;;;;;29.23;42.08;99635.72;4971600;28;20073;-81
2021/07/12 11:52:39;;;;;;;8.35;5.38;;;;;;;29.10;42.06;99635.78;4966908;28;20086;-77